Nearby METAR Reports

 

KHSI - Hastings, Nebraska, USA
Distance from station: NW 15mi, 25km
Updated: 03-01-2024 10:53am CST
Overcast
Overcast
 Wind from S
Wind: S 13 mph , 20 km/h, Gust: 24 mph , 39 km/h
Temperature: 39°F , 4°C
Wind Chill: 31°F , -1°C
Dew Point: 34°F , 1°C
Humidity: 81%
Barometer: 29.88 inHg , 1011.9 hPa
Clouds: Overcast
Visibility: 10 miles , 16 km
Cloud details: Overcast 1100 ft
2024/03/01 16:53 KHSI 011653Z AUTO 19011G21KT 10SM OVC011 04/01 A2988 RMK AO2 SLP130 T00440006
KAUH - Aurora, Nebraska, USA
Distance from station: NNE 35mi, 56km
Updated: 03-01-2024 10:55am CST
Overcast
Overcast
 Wind from SSW
Wind: SSW 17 mph , 28 km/h, Gust: 25 mph , 41 km/h
Temperature: 39°F , 4°C
Wind Chill: 30°F , -1°C
Dew Point: 34°F , 1°C
Humidity: 81%
Barometer: 29.88 inHg , 1011.9 hPa
Clouds: Overcast
Visibility: 10 miles , 16 km
Cloud details: Overcast 1000 ft
2024/03/01 16:55 KAUH 011655Z AUTO 20015G22KT 10SM OVC010 04/01 A2988 RMK AO2 T00420007
 
KGRI - Grand Island, Nebraska, USA
Distance from station: N 38mi, 61km
Updated: 03-01-2024 10:53am CST
Clear
Clear
 Wind from SSW
Wind: SSW 18 mph , 30 km/h, Gust: 28 mph , 44 km/h
Temperature: 43°F , 6°C
Wind Chill: 35°F , 2°C
Dew Point: 34°F , 1°C
Humidity: 71%
Barometer: 29.86 inHg , 1011.2 hPa
Clouds: Clear
Visibility: 10 miles , 16 km
2024/03/01 16:53 KGRI 011653Z 21016G24KT 10SM CLR 06/01 A2986 RMK AO2 SLP125 T00610006
KHJH - Hebron Muni, Nebraska, USA
Distance from station: ESE 40mi, 65km
Updated: 03-01-2024 10:55am CST
Overcast
Overcast
 Wind from SSW
Wind: SSW 12 mph , 19 km/h, Gust: 20 mph , 31 km/h
Temperature: 43°F , 6°C
Wind Chill: 37°F , 3°C
Dew Point: 34°F , 1°C
Humidity: 71%
Barometer: 29.94 inHg , 1013.9 hPa
Clouds: Overcast
Visibility: 10 miles , 16 km
Cloud details: Overcast 1200 ft
2024/03/01 16:55 KHJH 011655Z AUTO 20010G17KT 10SM OVC012 06/01 A2994 RMK AO2 T00550013
 
KEAR - Kearney Muni, Nebraska, USA
Distance from station: WNW 44mi, 70km
Updated: 03-01-2024 10:56am CST
Clear
Clear
 Wind from SSW
Wind: SSW 17 mph , 28 km/h
Temperature: 46°F , 8°C
Wind Chill: 39°F , 4°C
Dew Point: 34°F , 1°C
Humidity: 62%
Barometer: 29.85 inHg , 1010.8 hPa
Clouds: Clear
Visibility: 10 miles , 16 km
2024/03/01 16:56 KEAR 011656Z AUTO 20015KT 10SM CLR 08/01 A2985 RMK AO2 SLP115 T00780006
KJYR - York, Nebraska, USA
Distance from station: NE 47mi, 76km
Updated: 03-01-2024 10:55am CST
Overcast
Overcast
 Wind from SSW
Wind: SSW 21 mph , 33 km/h
Temperature: 39°F , 4°C
Wind Chill: 29°F , -2°C
Dew Point: 34°F , 1°C
Humidity: 81%
Barometer: 29.88 inHg , 1011.9 hPa
Clouds: Overcast
Visibility: 10 miles , 16 km
Cloud details: Overcast 1100 ft
2024/03/01 16:55 KJYR 011655Z AUTO 20018KT 10SM OVC011 04/01 A2988 RMK AO2
 
KK82 - Smith Center, Kansas, USA
Distance from station: SSW 53mi, 86km
Updated: 03-01-2024 10:55am CST
Overcast
Overcast
 Wind from S
Wind: S 16 mph , 26 km/h
Temperature: 43°F , 6°C
Wind Chill: 35°F , 2°C
Dew Point: 36°F , 2°C
Humidity: 76%
Barometer: 29.92 inHg , 1013.2 hPa
Clouds: Overcast
Visibility: 10 miles , 16 km
Cloud details: Overcast 1200 ft
2024/03/01 16:55 KK82 011655Z AUTO 19014KT 10SM OVC012 06/02 A2992 RMK AO2 T00640022
KHDE - Holdrege/Brewstr, Nebraska, USA
Distance from station: W 56mi, 91km
Updated: 03-01-2024 10:55am CST
Clear
Clear
 Wind from SW
Wind: SW 13 mph , 20 km/h
Temperature: 45°F , 7°C
Wind Chill: 39°F , 4°C
Dew Point: 34°F , 1°C
Humidity: 66%
Barometer: 29.85 inHg , 1010.8 hPa
Clouds: Clear
Visibility: 10 miles , 16 km
2024/03/01 16:55 KHDE 011655Z AUTO 22011KT 10SM CLR 07/01 A2985 RMK AO2 T00690005